Time;durP1;ratioP1;P1;durP2;ratioP2;P2;SDS_P1;SDS_P2;PMS_P1;PMS_P2;Temp;Humidity;BMP_temperature;BMP_pressure;BME280_temperature;BME280_humidity;BME280_pressure;Samples;Min_cycle;Max_cycle;Signal;HPM_P1;HPM_P2
2022/05/15 00:09:21;;;;;;;17.20;10.03;;;15.30;73.60;;;;;;20992428;28;20250;-61
2022/05/15 00:19:23;;;;;;;12.87;6.27;;;15.20;74.00;;;;;;20996232;28;20231;-65
2022/05/15 00:29:25;;;;;;;10.40;4.67;;;15.10;74.50;;;;;;20995517;28;20234;-65
2022/05/15 00:39:27;;;;;;;6.37;4.07;;;15.00;75.00;;;;;;20995809;28;20213;-67
2022/05/15 00:49:30;;;;;;;11.53;5.23;;;14.90;75.60;;;;;;20995028;28;20268;-62
2022/05/15 00:59:38;;;;;;;18.00;8.30;;;14.90;76.10;;;;;;20995145;28;20256;-62
2022/05/15 01:09:39;;;;;;;11.93;5.83;;;14.70;76.60;;;;;;21005855;28;20268;-65
2022/05/15 01:19:43;;;;;;;7.97;5.33;;;14.50;76.90;;;;;;21010540;28;20235;-68
2022/05/15 01:29:46;;;;;;;7.43;4.23;;;14.50;77.50;;;;;;21009752;28;20577;-69
2022/05/15 01:39:48;;;;;;;8.23;4.80;;;14.50;77.80;;;;;;21009632;28;20203;-72
2022/05/15 01:49:50;;;;;;;9.27;4.30;;;14.50;77.90;;;;;;21008069;28;20713;-72
2022/05/15 01:59:52;;;;;;;10.40;4.00;;;14.30;78.40;;;;;;21022269;28;20212;-65
2022/05/15 02:09:53;;;;;;;7.93;3.40;;;14.30;78.80;;;;;;21012340;28;20235;-67
2022/05/15 02:19:55;;;;;;;6.20;3.77;;;14.00;79.10;;;;;;21020235;28;20595;-69
2022/05/15 02:29:57;;;;;;;5.53;3.73;;;13.80;79.80;;;;;;21004727;28;20657;-64
2022/05/15 02:39:59;;;;;;;5.13;3.47;;;13.70;80.30;;;;;;21004486;28;20206;-64
2022/05/15 03:00:23;;;;;;;8.37;3.87;;;13.70;81.30;;;;;;21015597;28;20264;-61
2022/05/15 03:10:25;;;;;;;5.10;3.43;;;13.50;81.80;;;;;;21002013;28;20238;-68
2022/05/15 03:20:27;;;;;;;6.60;3.40;;;13.50;81.70;;;;;;21000717;28;20712;-66
2022/05/15 03:30:29;;;;;;;4.63;3.40;;;13.50;81.30;;;;;;20999586;28;20233;-71
2022/05/15 03:40:31;;;;;;;6.33;4.20;;;13.50;81.50;;;;;;21000125;28;20205;-61
2022/05/15 03:50:32;;;;;;;6.97;4.43;;;13.40;82.00;;;;;;21001764;28;20245;-60
2022/05/15 04:00:34;;;;;;;7.93;4.50;;;13.30;82.30;;;;;;21017782;28;20297;-63
2022/05/15 04:10:36;;;;;;;4.40;3.57;;;13.10;82.80;;;;;;20977546;28;20265;-61
2022/05/15 04:20:42;;;;;;;11.20;4.10;;;13.10;83.20;;;;;;20998413;28;20632;-60
2022/05/15 04:30:43;;;;;;;7.80;4.07;;;13.20;83.50;;;;;;20995836;28;20265;-61
2022/05/15 04:40:45;;;;;;;4.80;3.63;;;13.30;83.60;;;;;;20995083;28;20215;-68
2022/05/15 04:50:47;;;;;;;6.43;4.23;;;13.50;84.30;;;;;;20994971;28;20698;-61
2022/05/15 05:00:49;;;;;;;4.53;3.73;;;13.60;83.80;;;;;;20994444;28;20253;-60
2022/05/15 05:10:51;;;;;;;10.90;4.33;;;13.50;84.10;;;;;;20976555;28;20243;-61
2022/05/15 05:20:53;;;;;;;8.63;4.50;;;13.70;84.40;;;;;;20993634;28;20322;-61
2022/05/15 05:30:55;;;;;;;8.07;4.57;;;13.90;84.60;;;;;;21008539;28;20234;-63
2022/05/15 05:40:57;;;;;;;8.40;5.17;;;14.20;84.40;;;;;;20992750;28;20207;-60
2022/05/15 05:50:59;;;;;;;12.97;5.37;;;14.20;84.40;;;;;;20995661;28;20234;-63
2022/05/15 06:01:01;;;;;;;11.37;4.53;;;14.60;84.30;;;;;;21006643;28;20367;-62
2022/05/15 06:11:03;;;;;;;8.17;4.40;;;14.90;83.60;;;;;;21019845;28;20661;-62
2022/05/15 06:21:05;;;;;;;9.67;5.07;;;15.20;82.50;;;;;;21006444;28;20777;-66
2022/05/15 06:31:07;;;;;;;12.33;4.57;;;15.50;81.80;;;;;;21005336;28;20235;-67
2022/05/15 06:41:09;;;;;;;12.37;5.40;;;15.90;81.10;;;;;;21020140;28;20689;-62
2022/05/15 06:51:16;;;;;;;10.30;4.73;;;16.40;80.40;;;;;;21013407;28;20302;-65
2022/05/15 07:01:19;;;;;;;10.60;4.63;;;16.70;79.60;;;;;;21001488;28;20300;-61
2022/05/15 07:11:21;;;;;;;12.97;4.50;;;17.00;79.00;;;;;;21018637;28;20231;-61
2022/05/15 07:21:22;;;;;;;12.93;4.80;;;17.50;78.20;;;;;;21017767;28;20231;-59
2022/05/15 07:31:24;;;;;;;13.60;4.13;;;17.90;77.50;;;;;;21000340;28;20282;-60
2022/05/15 07:41:26;;;;;;;7.13;3.50;;;18.20;76.40;;;;;;21041923;28;20204;-60
2022/05/15 07:51:31;;;;;;;8.77;3.77;;;18.60;74.90;;;;;;21082563;28;20235;-72
2022/05/15 08:01:34;;;;;;;11.17;3.77;;;19.00;74.00;;;;;;21005351;28;20210;-62
2022/05/15 08:11:37;;;;;;;12.03;3.67;;;19.30;72.70;;;;;;20993887;28;20236;-62
2022/05/15 08:32:00;;;;;;;7.20;3.20;;;20.00;70.80;;;;;;21016189;28;20290;-60
2022/05/15 08:42:14;;;;;;;6.63;3.70;;;20.30;69.60;;;;;;21074967;28;20210;-62
2022/05/15 08:52:18;;;;;;;11.20;3.43;;;20.50;68.50;;;;;;21078623;28;20237;-66
2022/05/15 09:02:20;;;;;;;8.97;3.83;;;20.80;67.00;;;;;;21078698;28;20213;-65
2022/05/15 09:12:25;;;;;;;6.97;3.50;;;21.00;66.00;;;;;;21081787;28;20242;-61
2022/05/15 09:22:35;;;;;;;8.63;3.20;;;21.20;65.20;;;;;;21061519;28;20234;-72
2022/05/15 09:32:42;;;;;;;9.00;3.30;;;21.40;64.60;;;;;;21091324;28;20693;-67
2022/05/15 09:53:19;;;;;;;7.07;2.90;;;21.80;63.20;;;;;;21092059;28;20273;-61
2022/05/15 10:03:24;;;;;;;4.57;2.80;;;22.10;62.70;;;;;;21091156;28;20225;-61
2022/05/15 10:13:37;;;;;;;4.63;2.60;;;22.30;61.10;;;;;;21090574;28;20629;-72
2022/05/15 10:23:47;;;;;;;4.03;2.70;;;22.50;60.00;;;;;;21071488;28;20234;-73
2022/05/15 10:33:52;;;;;;;4.80;2.50;;;22.70;58.90;;;;;;21055064;28;20238;-73
2022/05/15 10:44:17;;;;;;;6.90;2.50;;;22.90;57.70;;;;;;20983761;28;20207;-68
2022/05/15 11:05:52;;;;;;;8.70;2.63;;;23.30;55.60;;;;;;21002536;28;20237;-73
2022/05/15 11:16:14;;;;;;;6.40;2.50;;;23.40;54.80;;;;;;20983211;28;20230;-61
2022/05/15 11:26:20;;;;;;;5.13;2.67;;;23.50;54.40;;;;;;21000652;28;20223;-68
2022/05/15 11:36:21;;;;;;;5.70;2.83;;;23.60;53.90;;;;;;20999990;28;20670;-66
2022/05/15 11:46:46;;;;;;;4.27;2.40;;;23.80;52.90;;;;;;20999235;28;20319;-69
2022/05/15 11:56:51;;;;;;;5.53;2.57;;;24.00;52.00;;;;;;20997718;28;20219;-62
2022/05/15 12:06:55;;;;;;;6.57;2.43;;;24.20;51.00;;;;;;20997666;28;20318;-63
2022/05/15 12:17:21;;;;;;;6.70;2.40;;;24.50;50.90;;;;;;21008704;28;20666;-67
2022/05/15 12:27:26;;;;;;;6.33;2.50;;;24.50;50.60;;;;;;21033933;28;20296;-72
2022/05/15 12:37:34;;;;;;;4.87;2.03;;;24.30;50.70;;;;;;21057117;28;20213;-67
2022/05/15 12:47:38;;;;;;;5.20;2.23;;;24.60;50.30;;;;;;21081831;28;20234;-62
2022/05/15 12:57:52;;;;;;;5.70;2.23;;;24.70;48.80;;;;;;21062668;28;20289;-64
2022/05/15 13:07:57;;;;;;;5.63;2.20;;;24.80;48.20;;;;;;21094230;28;20601;-72
2022/05/15 13:18:08;;;;;;;7.33;2.20;;;24.90;47.60;;;;;;21094574;28;20237;-71
2022/05/15 13:28:11;;;;;;;3.73;1.97;;;25.00;46.50;;;;;;21094097;28;20313;-72
2022/05/15 13:43:17;;;;;;;4.60;1.90;;;25.10;46.00;;;;;;21093425;28;20203;-64
2022/05/15 13:48:57;;;;;;;4.03;2.20;;;25.10;46.30;;;;;;21092986;28;20234;-65
2022/05/15 13:59:02;;;;;;;6.90;2.23;;;25.20;46.10;;;;;;21094988;28;20256;-72
2022/05/15 14:09:14;;;;;;;4.13;2.23;;;25.40;45.90;;;;;;21118405;28;20279;-70
2022/05/15 14:19:18;;;;;;;3.47;1.90;;;25.50;45.80;;;;;;21103615;28;20234;-67
2022/05/15 14:29:20;;;;;;;4.50;2.10;;;25.70;44.80;;;;;;21090782;28;20751;-64
2022/05/15 14:39:23;;;;;;;5.33;1.90;;;25.80;44.60;;;;;;21018960;28;20207;-62
2022/05/15 14:49:26;;;;;;;6.10;2.00;;;26.00;43.70;;;;;;21006162;28;20249;-61
2022/05/15 14:59:39;;;;;;;4.97;2.00;;;26.40;42.90;;;;;;21004378;28;20695;-61
2022/05/15 15:09:41;;;;;;;3.40;2.10;;;25.90;43.00;;;;;;21002223;28;20234;-60
2022/05/15 15:19:43;;;;;;;9.63;2.57;;;26.00;42.60;;;;;;21000556;28;20239;-62
2022/05/15 15:29:44;;;;;;;4.70;2.03;;;26.70;41.80;;;;;;20999263;28;20307;-60
2022/05/15 15:39:47;;;;;;;4.40;2.20;;;26.10;41.90;;;;;;21000111;28;20207;-61
2022/05/15 15:49:48;;;;;;;4.33;1.90;;;25.90;41.70;;;;;;20999753;28;20235;-60
2022/05/15 15:59:50;;;;;;;6.63;1.90;;;25.60;41.40;;;;;;20998772;28;20257;-61
2022/05/15 16:09:53;;;;;;;4.80;2.23;;;25.40;41.20;;;;;;20997355;28;20690;-61
2022/05/15 16:19:55;;;;;;;5.57;2.27;;;25.30;41.00;;;;;;21012770;28;20722;-61
2022/05/15 16:30:00;;;;;;;3.53;2.10;;;25.60;41.00;;;;;;20996654;28;20722;-60
2022/05/15 16:40:03;;;;;;;35.73;4.17;;;26.70;40.50;;;;;;20991316;28;20574;-59
2022/05/15 16:50:07;;;;;;;4.43;2.10;;;26.40;41.10;;;;;;20995847;28;20620;-62
2022/05/15 17:00:15;;;;;;;4.77;1.90;;;26.10;42.20;;;;;;20995293;28;20238;-64
2022/05/15 17:10:19;;;;;;;3.23;2.20;;;25.70;43.20;;;;;;20994778;28;20242;-72
2022/05/15 17:20:21;;;;;;;5.37;2.47;;;25.50;44.00;;;;;;20993221;28;20300;-65
2022/05/15 17:40:44;;;;;;;6.83;2.30;;;25.30;45.60;;;;;;21078094;28;20247;-62
2022/05/15 17:50:47;;;;;;;6.93;2.50;;;25.10;46.60;;;;;;21096419;28;20245;-71
2022/05/15 18:00:50;;;;;;;8.80;2.47;;;24.90;47.30;;;;;;21090030;28;20693;-62
2022/05/15 18:10:54;;;;;;;7.90;2.50;;;24.70;47.90;;;;;;21154067;28;20229;-66
2022/05/15 18:20:55;;;;;;;6.37;2.67;;;24.50;48.60;;;;;;21155995;28;20241;-70
2022/05/15 18:31:00;;;;;;;6.93;2.70;;;24.20;49.10;;;;;;21119671;28;20320;-64
2022/05/15 18:41:04;;;;;;;7.97;2.50;;;23.90;49.90;;;;;;21087439;28;20211;-64
2022/05/15 19:01:26;;;;;;;4.93;2.80;;;23.40;51.30;;;;;;21084874;28;20207;-61
2022/05/15 19:11:31;;;;;;;5.73;2.83;;;23.10;52.00;;;;;;21084288;28;20291;-62
2022/05/15 19:21:33;;;;;;;3.13;2.63;;;22.80;52.40;;;;;;21083997;28;20254;-62
2022/05/15 19:31:35;;;;;;;5.70;3.10;;;22.50;53.70;;;;;;21041716;28;20235;-61
2022/05/15 19:41:37;;;;;;;9.90;5.43;;;22.20;54.30;;;;;;20998186;28;20243;-62
2022/05/15 19:51:40;;;;;;;8.20;3.20;;;21.90;54.70;;;;;;20998396;28;20234;-63
2022/05/15 20:01:43;;;;;;;6.17;3.00;;;21.70;55.80;;;;;;20996661;28;20214;-65
2022/05/15 20:11:45;;;;;;;8.67;3.27;;;21.50;56.60;;;;;;21126583;28;20229;-65
2022/05/15 20:21:48;;;;;;;11.17;3.30;;;21.20;57.60;;;;;;21174245;28;20314;-65
2022/05/15 20:31:50;;;;;;;8.07;3.90;;;20.80;58.70;;;;;;21162623;28;20241;-70
2022/05/15 20:41:53;;;;;;;7.63;4.60;;;20.60;59.70;;;;;;21160928;28;20220;-69
2022/05/15 20:51:54;;;;;;;12.17;3.63;;;20.30;61.10;;;;;;21161210;28;20306;-61
2022/05/15 21:01:59;;;;;;;5.80;3.80;;;20.10;62.60;;;;;;21160514;28;20656;-62
2022/05/15 21:12:01;;;;;;;6.40;3.60;;;19.90;63.60;;;;;;21160325;28;20236;-64
2022/05/15 21:22:03;;;;;;;8.97;3.63;;;19.70;64.80;;;;;;21164939;28;20277;-64
2022/05/15 21:32:05;;;;;;;6.23;3.80;;;19.40;65.80;;;;;;21178377;28;20249;-61
2022/05/15 21:52:28;;;;;;;7.37;3.70;;;18.90;67.90;;;;;;21177187;28;20240;-62
2022/05/15 22:02:32;;;;;;;6.57;3.73;;;18.70;69.00;;;;;;21176017;28;20672;-61
2022/05/15 22:12:34;;;;;;;5.87;4.20;;;18.60;69.60;;;;;;21068739;28;20231;-63
2022/05/15 22:22:37;;;;;;;8.00;3.90;;;18.40;70.50;;;;;;21035431;28;20230;-62
2022/05/15 22:32:39;;;;;;;6.13;3.80;;;18.10;71.30;;;;;;21088036;28;20639;-61
2022/05/15 22:42:41;;;;;;;5.70;3.73;;;18.00;72.50;;;;;;21088509;28;20253;-60
2022/05/15 22:52:43;;;;;;;6.67;3.87;;;17.70;73.00;;;;;;21098405;28;20226;-64
2022/05/15 23:02:44;;;;;;;8.33;3.40;;;17.60;73.80;;;;;;21105240;28;20210;-67
2022/05/15 23:12:46;;;;;;;5.63;3.87;;;17.40;74.50;;;;;;21086845;28;20650;-68
2022/05/15 23:22:49;;;;;;;6.23;3.90;;;17.30;74.80;;;;;;21085468;28;20323;-71
2022/05/15 23:32:53;;;;;;;8.33;3.70;;;17.20;75.50;;;;;;21085677;28;20239;-68
2022/05/15 23:42:55;;;;;;;6.20;3.97;;;17.10;76.30;;;;;;21113312;28;20207;-68
2022/05/15 23:52:57;;;;;;;5.87;3.90;;;17.10;76.90;;;;;;21084235;28;20245;-65
